sensor_id;sensor_type;location;lat;lon;timestamp;pressure;altitude;pressure_sealevel;temperature;humidity
6514;BME280;3290;47.716;9.070;2024-02-21T00:01:16;98033.22;;;5.73;100.00
6514;BME280;3290;47.716;9.070;2024-02-21T00:03:42;98044.00;;;5.86;100.00
6514;BME280;3290;47.716;9.070;2024-02-21T00:06:08;98039.59;;;5.78;100.00
6514;BME280;3290;47.716;9.070;2024-02-21T00:08:33;98036.03;;;5.54;100.00
6514;BME280;3290;47.716;9.070;2024-02-21T00:10:58;98028.94;;;5.64;100.00
6514;BME280;3290;47.716;9.070;2024-02-21T00:13:24;98030.38;;;5.92;100.00
6514;BME280;3290;47.716;9.070;2024-02-21T00:15:49;98023.84;;;5.88;100.00
6514;BME280;3290;47.716;9.070;2024-02-21T00:18:15;98026.50;;;5.70;100.00
6514;BME280;3290;47.716;9.070;2024-02-21T00:20:40;98025.94;;;5.51;100.00
6514;BME280;3290;47.716;9.070;2024-02-21T00:23:05;98024.19;;;5.52;100.00
6514;BME280;3290;47.716;9.070;2024-02-21T00:25:31;98020.75;;;5.51;100.00
6514;BME280;3290;47.716;9.070;2024-02-21T00:27:56;98017.91;;;5.62;100.00
6514;BME280;3290;47.716;9.070;2024-02-21T00:30:21;98017.50;;;5.49;100.00
6514;BME280;3290;47.716;9.070;2024-02-21T00:32:47;98014.81;;;5.66;100.00
6514;BME280;3290;47.716;9.070;2024-02-21T00:35:14;98015.72;;;5.83;100.00
6514;BME280;3290;47.716;9.070;2024-02-21T00:37:39;98017.19;;;5.52;100.00
6514;BME280;3290;47.716;9.070;2024-02-21T00:40:05;98008.06;;;5.40;100.00
6514;BME280;3290;47.716;9.070;2024-02-21T00:42:30;98002.97;;;5.72;100.00
6514;BME280;3290;47.716;9.070;2024-02-21T00:44:56;98011.16;;;5.77;100.00
6514;BME280;3290;47.716;9.070;2024-02-21T00:47:21;98001.09;;;5.90;100.00
6514;BME280;3290;47.716;9.070;2024-02-21T00:49:46;98007.59;;;5.86;100.00
6514;BME280;3290;47.716;9.070;2024-02-21T00:52:12;98000.97;;;5.58;100.00
6514;BME280;3290;47.716;9.070;2024-02-21T00:54:37;97997.16;;;5.37;100.00
6514;BME280;3290;47.716;9.070;2024-02-21T00:57:03;97997.28;;;5.27;100.00
6514;BME280;3290;47.716;9.070;2024-02-21T00:59:28;97993.13;;;5.09;100.00
6514;BME280;3290;47.716;9.070;2024-02-21T01:01:53;97995.31;;;5.21;100.00
6514;BME280;3290;47.716;9.070;2024-02-21T01:04:19;97989.13;;;5.15;100.00
6514;BME280;3290;47.716;9.070;2024-02-21T01:06:44;97987.25;;;5.32;100.00
6514;BME280;3290;47.716;9.070;2024-02-21T01:09:11;97985.81;;;5.38;100.00
6514;BME280;3290;47.716;9.070;2024-02-21T01:11:36;97976.63;;;5.59;100.00
6514;BME280;3290;47.716;9.070;2024-02-21T01:14:02;97985.44;;;5.74;100.00
6514;BME280;3290;47.716;9.070;2024-02-21T01:16:27;97973.88;;;5.68;100.00
6514;BME280;3290;47.716;9.070;2024-02-21T01:18:53;97982.00;;;5.65;100.00
6514;BME280;3290;47.716;9.070;2024-02-21T01:21:18;97982.47;;;5.61;100.00
6514;BME280;3290;47.716;9.070;2024-02-21T01:23:43;97977.72;;;5.49;100.00
6514;BME280;3290;47.716;9.070;2024-02-21T01:26:09;97971.38;;;5.43;100.00
6514;BME280;3290;47.716;9.070;2024-02-21T01:28:38;97973.06;;;5.60;100.00
6514;BME280;3290;47.716;9.070;2024-02-21T01:31:03;97970.97;;;5.71;100.00
6514;BME280;3290;47.716;9.070;2024-02-21T01:33:29;97970.88;;;5.97;100.00
6514;BME280;3290;47.716;9.070;2024-02-21T01:36:00;97980.78;;;5.93;100.00
6514;BME280;3290;47.716;9.070;2024-02-21T01:38:25;97975.06;;;5.74;100.00
6514;BME280;3290;47.716;9.070;2024-02-21T01:40:51;97972.19;;;5.85;100.00
6514;BME280;3290;47.716;9.070;2024-02-21T01:43:17;97973.97;;;5.43;100.00
6514;BME280;3290;47.716;9.070;2024-02-21T01:45:48;97973.63;;;5.38;100.00
6514;BME280;3290;47.716;9.070;2024-02-21T01:48:14;97974.25;;;5.32;100.00
6514;BME280;3290;47.716;9.070;2024-02-21T01:50:40;97968.88;;;5.26;100.00
6514;BME280;3290;47.716;9.070;2024-02-21T01:53:06;97959.81;;;5.38;100.00
6514;BME280;3290;47.716;9.070;2024-02-21T01:55:32;97956.66;;;5.18;100.00
6514;BME280;3290;47.716;9.070;2024-02-21T01:57:58;97948.25;;;5.24;100.00
6514;BME280;3290;47.716;9.070;2024-02-21T02:00:24;97947.94;;;5.27;100.00
6514;BME280;3290;47.716;9.070;2024-02-21T02:02:50;97937.59;;;5.43;100.00
6514;BME280;3290;47.716;9.070;2024-02-21T02:05:16;97934.63;;;5.30;100.00
6514;BME280;3290;47.716;9.070;2024-02-21T02:07:42;97933.50;;;5.25;100.00
6514;BME280;3290;47.716;9.070;2024-02-21T02:10:08;97925.59;;;5.50;100.00
6514;BME280;3290;47.716;9.070;2024-02-21T02:12:35;97928.84;;;5.52;100.00
6514;BME280;3290;47.716;9.070;2024-02-21T02:15:02;97912.41;;;5.36;100.00
6514;BME280;3290;47.716;9.070;2024-02-21T02:17:30;97913.88;;;5.38;100.00
6514;BME280;3290;47.716;9.070;2024-02-21T02:19:55;97908.31;;;5.33;100.00
6514;BME280;3290;47.716;9.070;2024-02-21T02:22:23;97908.22;;;5.43;100.00
6514;BME280;3290;47.716;9.070;2024-02-21T02:24:51;97912.06;;;5.31;100.00
6514;BME280;3290;47.716;9.070;2024-02-21T02:27:16;97903.84;;;5.59;100.00
6514;BME280;3290;47.716;9.070;2024-02-21T02:29:41;97912.94;;;5.63;100.00
6514;BME280;3290;47.716;9.070;2024-02-21T02:32:07;97900.28;;;5.60;100.00
6514;BME280;3290;47.716;9.070;2024-02-21T02:34:32;97902.06;;;5.52;100.00
6514;BME280;3290;47.716;9.070;2024-02-21T02:36:57;97900.06;;;5.38;100.00
6514;BME280;3290;47.716;9.070;2024-02-21T02:39:23;97895.69;;;5.38;100.00
6514;BME280;3290;47.716;9.070;2024-02-21T02:41:48;97891.44;;;5.29;100.00
6514;BME280;3290;47.716;9.070;2024-02-21T02:44:14;97885.09;;;5.32;100.00
6514;BME280;3290;47.716;9.070;2024-02-21T02:46:42;97884.47;;;5.38;100.00
6514;BME280;3290;47.716;9.070;2024-02-21T02:49:08;97893.72;;;5.40;100.00
6514;BME280;3290;47.716;9.070;2024-02-21T02:51:33;97888.88;;;5.45;100.00
6514;BME280;3290;47.716;9.070;2024-02-21T02:53:59;97875.69;;;5.31;100.00
6514;BME280;3290;47.716;9.070;2024-02-21T02:56:24;97870.16;;;5.26;100.00
6514;BME280;3290;47.716;9.070;2024-02-21T02:58:50;97864.31;;;5.32;100.00
6514;BME280;3290;47.716;9.070;2024-02-21T03:01:15;97862.56;;;5.40;100.00
6514;BME280;3290;47.716;9.070;2024-02-21T03:03:40;97871.50;;;5.46;100.00
6514;BME280;3290;47.716;9.070;2024-02-21T03:06:06;97879.78;;;5.49;100.00
6514;BME280;3290;47.716;9.070;2024-02-21T03:08:31;97868.63;;;5.72;100.00
6514;BME280;3290;47.716;9.070;2024-02-21T03:10:58;97869.75;;;5.70;100.00
6514;BME280;3290;47.716;9.070;2024-02-21T03:13:25;97861.09;;;5.46;100.00
6514;BME280;3290;47.716;9.070;2024-02-21T03:15:50;97854.16;;;5.46;100.00
6514;BME280;3290;47.716;9.070;2024-02-21T03:18:15;97849.28;;;5.59;100.00
6514;BME280;3290;47.716;9.070;2024-02-21T03:20:41;97850.22;;;5.42;100.00
6514;BME280;3290;47.716;9.070;2024-02-21T03:23:06;97842.91;;;5.46;100.00
6514;BME280;3290;47.716;9.070;2024-02-21T03:25:32;97839.47;;;5.29;100.00
6514;BME280;3290;47.716;9.070;2024-02-21T03:27:57;97832.69;;;5.36;100.00
6514;BME280;3290;47.716;9.070;2024-02-21T03:30:22;97820.84;;;5.50;100.00
6514;BME280;3290;47.716;9.070;2024-02-21T03:32:48;97825.22;;;5.49;100.00
6514;BME280;3290;47.716;9.070;2024-02-21T03:35:14;97816.16;;;5.53;100.00
6514;BME280;3290;47.716;9.070;2024-02-21T03:37:39;97813.84;;;5.58;100.00
6514;BME280;3290;47.716;9.070;2024-02-21T03:40:08;97814.97;;;5.48;100.00
6514;BME280;3290;47.716;9.070;2024-02-21T03:42:34;97799.56;;;5.38;100.00
6514;BME280;3290;47.716;9.070;2024-02-21T03:44:59;97803.44;;;5.42;100.00
6514;BME280;3290;47.716;9.070;2024-02-21T03:47:25;97803.16;;;5.69;100.00
6514;BME280;3290;47.716;9.070;2024-02-21T03:49:50;97791.28;;;5.66;100.00
6514;BME280;3290;47.716;9.070;2024-02-21T03:52:15;97790.66;;;5.57;100.00
6514;BME280;3290;47.716;9.070;2024-02-21T03:54:41;97786.28;;;5.73;100.00
6514;BME280;3290;47.716;9.070;2024-02-21T03:57:07;97798.25;;;5.58;100.00
6514;BME280;3290;47.716;9.070;2024-02-21T03:59:32;97785.75;;;5.61;100.00
6514;BME280;3290;47.716;9.070;2024-02-21T04:01:58;97777.66;;;5.64;100.00
6514;BME280;3290;47.716;9.070;2024-02-21T04:04:24;97777.81;;;5.63;100.00
6514;BME280;3290;47.716;9.070;2024-02-21T04:06:50;97771.97;;;5.61;100.00
6514;BME280;3290;47.716;9.070;2024-02-21T04:09:16;97768.88;;;5.57;100.00
6514;BME280;3290;47.716;9.070;2024-02-21T04:11:41;97765.78;;;5.54;100.00
6514;BME280;3290;47.716;9.070;2024-02-21T04:14:06;97763.19;;;5.70;100.00
6514;BME280;3290;47.716;9.070;2024-02-21T04:16:32;97759.59;;;5.63;100.00
6514;BME280;3290;47.716;9.070;2024-02-21T04:18:57;97752.78;;;5.70;100.00
6514;BME280;3290;47.716;9.070;2024-02-21T04:21:23;97756.22;;;5.78;100.00
6514;BME280;3290;47.716;9.070;2024-02-21T04:23:48;97752.13;;;5.68;100.00
6514;BME280;3290;47.716;9.070;2024-02-21T04:26:14;97752.50;;;5.73;100.00
6514;BME280;3290;47.716;9.070;2024-02-21T04:28:39;97757.31;;;5.99;100.00
6514;BME280;3290;47.716;9.070;2024-02-21T04:31:05;97759.59;;;5.95;100.00
6514;BME280;3290;47.716;9.070;2024-02-21T04:33:30;97755.72;;;5.98;100.00
6514;BME280;3290;47.716;9.070;2024-02-21T04:35:55;97759.47;;;5.88;100.00
6514;BME280;3290;47.716;9.070;2024-02-21T04:38:21;97763.69;;;5.81;100.00
6514;BME280;3290;47.716;9.070;2024-02-21T04:40:46;97767.56;;;5.93;100.00
6514;BME280;3290;47.716;9.070;2024-02-21T04:43:12;97762.81;;;6.12;100.00
6514;BME280;3290;47.716;9.070;2024-02-21T04:45:37;97765.88;;;6.16;100.00
6514;BME280;3290;47.716;9.070;2024-02-21T04:48:02;97757.06;;;6.40;100.00
6514;BME280;3290;47.716;9.070;2024-02-21T04:50:28;97763.97;;;6.18;100.00
6514;BME280;3290;47.716;9.070;2024-02-21T04:52:53;97761.56;;;6.00;100.00
6514;BME280;3290;47.716;9.070;2024-02-21T04:55:18;97759.41;;;6.12;100.00
6514;BME280;3290;47.716;9.070;2024-02-21T04:57:44;97757.66;;;5.81;100.00
6514;BME280;3290;47.716;9.070;2024-02-21T05:00:09;97760.44;;;5.95;100.00
6514;BME280;3290;47.716;9.070;2024-02-21T05:02:36;97753.91;;;5.91;100.00
6514;BME280;3290;47.716;9.070;2024-02-21T05:05:01;97739.19;;;5.76;100.00
6514;BME280;3290;47.716;9.070;2024-02-21T05:07:27;97729.59;;;5.76;100.00
6514;BME280;3290;47.716;9.070;2024-02-21T05:09:52;97719.34;;;5.83;100.00
6514;BME280;3290;47.716;9.070;2024-02-21T05:12:18;97709.88;;;6.05;100.00
6514;BME280;3290;47.716;9.070;2024-02-21T05:14:43;97710.56;;;5.84;100.00
6514;BME280;3290;47.716;9.070;2024-02-21T05:17:09;97708.94;;;5.83;100.00
6514;BME280;3290;47.716;9.070;2024-02-21T05:19:34;97709.09;;;5.73;100.00
6514;BME280;3290;47.716;9.070;2024-02-21T05:21:59;97712.84;;;5.79;100.00
6514;BME280;3290;47.716;9.070;2024-02-21T05:24:25;97712.53;;;5.50;100.00
6514;BME280;3290;47.716;9.070;2024-02-21T05:26:51;97705.06;;;5.39;100.00
6514;BME280;3290;47.716;9.070;2024-02-21T05:29:16;97704.91;;;5.33;100.00
6514;BME280;3290;47.716;9.070;2024-02-21T05:34:19;97705.38;;;5.13;100.00
6514;BME280;3290;47.716;9.070;2024-02-21T05:36:45;97694.03;;;5.14;100.00
6514;BME280;3290;47.716;9.070;2024-02-21T05:39:11;97692.72;;;5.02;100.00
6514;BME280;3290;47.716;9.070;2024-02-21T05:41:37;97676.16;;;4.95;100.00
6514;BME280;3290;47.716;9.070;2024-02-21T05:44:03;97674.53;;;5.17;100.00
6514;BME280;3290;47.716;9.070;2024-02-21T05:46:28;97674.56;;;5.25;100.00
6514;BME280;3290;47.716;9.070;2024-02-21T05:48:54;97679.09;;;5.39;100.00
6514;BME280;3290;47.716;9.070;2024-02-21T05:51:19;97687.34;;;5.58;100.00
6514;BME280;3290;47.716;9.070;2024-02-21T05:53:44;97680.34;;;5.59;100.00
6514;BME280;3290;47.716;9.070;2024-02-21T05:56:11;97681.00;;;5.69;100.00
6514;BME280;3290;47.716;9.070;2024-02-21T05:58:37;97673.03;;;5.62;100.00
6514;BME280;3290;47.716;9.070;2024-02-21T06:01:02;97670.75;;;5.67;100.00
6514;BME280;3290;47.716;9.070;2024-02-21T06:03:29;97670.72;;;5.91;100.00
6514;BME280;3290;47.716;9.070;2024-02-21T06:05:54;97684.25;;;5.63;100.00
6514;BME280;3290;47.716;9.070;2024-02-21T06:08:20;97679.84;;;5.71;100.00
6514;BME280;3290;47.716;9.070;2024-02-21T06:10:45;97689.44;;;5.71;100.00
6514;BME280;3290;47.716;9.070;2024-02-21T06:13:11;97674.47;;;5.81;100.00
6514;BME280;3290;47.716;9.070;2024-02-21T06:15:36;97669.44;;;5.87;100.00
6514;BME280;3290;47.716;9.070;2024-02-21T06:18:02;97665.44;;;5.53;100.00
6514;BME280;3290;47.716;9.070;2024-02-21T06:20:27;97658.31;;;5.39;100.00
6514;BME280;3290;47.716;9.070;2024-02-21T06:22:53;97651.78;;;5.51;100.00
6514;BME280;3290;47.716;9.070;2024-02-21T06:25:19;97646.72;;;5.57;100.00
6514;BME280;3290;47.716;9.070;2024-02-21T06:27:44;97642.00;;;5.61;100.00
6514;BME280;3290;47.716;9.070;2024-02-21T06:30:12;97648.03;;;5.46;100.00
6514;BME280;3290;47.716;9.070;2024-02-21T06:32:38;97652.13;;;5.48;100.00
6514;BME280;3290;47.716;9.070;2024-02-21T06:35:04;97657.44;;;5.55;100.00
6514;BME280;3290;47.716;9.070;2024-02-21T06:37:30;97655.19;;;5.44;100.00
6514;BME280;3290;47.716;9.070;2024-02-21T06:39:57;97660.91;;;5.16;100.00
6514;BME280;3290;47.716;9.070;2024-02-21T06:42:24;97661.22;;;5.13;100.00
6514;BME280;3290;47.716;9.070;2024-02-21T06:44:49;97656.69;;;5.07;100.00
6514;BME280;3290;47.716;9.070;2024-02-21T06:47:15;97660.59;;;5.18;100.00
6514;BME280;3290;47.716;9.070;2024-02-21T06:49:40;97655.38;;;5.34;100.00
6514;BME280;3290;47.716;9.070;2024-02-21T06:52:06;97646.94;;;5.32;100.00
6514;BME280;3290;47.716;9.070;2024-02-21T06:54:32;97637.38;;;5.33;100.00
6514;BME280;3290;47.716;9.070;2024-02-21T06:56:58;97640.41;;;5.52;100.00
6514;BME280;3290;47.716;9.070;2024-02-21T06:59:23;97638.78;;;5.59;100.00
6514;BME280;3290;47.716;9.070;2024-02-21T07:01:49;97644.63;;;5.61;100.00
6514;BME280;3290;47.716;9.070;2024-02-21T07:04:15;97649.84;;;5.53;100.00
6514;BME280;3290;47.716;9.070;2024-02-21T07:06:40;97648.16;;;5.68;100.00
6514;BME280;3290;47.716;9.070;2024-02-21T07:09:06;97653.81;;;5.95;100.00
6514;BME280;3290;47.716;9.070;2024-02-21T07:11:31;97665.19;;;6.32;100.00
6514;BME280;3290;47.716;9.070;2024-02-21T07:13:56;97656.06;;;6.36;100.00
6514;BME280;3290;47.716;9.070;2024-02-21T07:16:22;97663.56;;;6.31;100.00
6514;BME280;3290;47.716;9.070;2024-02-21T07:18:47;97665.38;;;6.23;100.00
6514;BME280;3290;47.716;9.070;2024-02-21T07:21:13;97657.41;;;6.24;100.00
6514;BME280;3290;47.716;9.070;2024-02-21T07:23:41;97655.84;;;6.45;100.00
6514;BME280;3290;47.716;9.070;2024-02-21T07:26:07;97655.91;;;6.38;100.00
6514;BME280;3290;47.716;9.070;2024-02-21T07:28:32;97660.06;;;6.46;100.00
6514;BME280;3290;47.716;9.070;2024-02-21T07:30:59;97655.28;;;6.58;100.00
6514;BME280;3290;47.716;9.070;2024-02-21T07:33:25;97651.69;;;6.67;100.00
6514;BME280;3290;47.716;9.070;2024-02-21T07:35:50;97652.06;;;6.78;100.00
6514;BME280;3290;47.716;9.070;2024-02-21T07:38:15;97653.75;;;6.41;100.00
6514;BME280;3290;47.716;9.070;2024-02-21T07:40:44;97653.00;;;6.33;100.00
6514;BME280;3290;47.716;9.070;2024-02-21T07:43:10;97658.34;;;6.61;100.00
6514;BME280;3290;47.716;9.070;2024-02-21T07:45:35;97652.53;;;6.81;100.00
6514;BME280;3290;47.716;9.070;2024-02-21T07:48:01;97653.03;;;6.55;100.00
6514;BME280;3290;47.716;9.070;2024-02-21T07:50:26;97661.66;;;7.22;100.00
6514;BME280;3290;47.716;9.070;2024-02-21T07:52:52;97657.16;;;7.53;100.00
6514;BME280;3290;47.716;9.070;2024-02-21T07:55:17;97658.25;;;7.58;100.00
6514;BME280;3290;47.716;9.070;2024-02-21T07:57:42;97648.56;;;7.30;100.00
6514;BME280;3290;47.716;9.070;2024-02-21T08:00:08;97649.03;;;7.33;100.00
6514;BME280;3290;47.716;9.070;2024-02-21T08:02:35;97636.38;;;7.73;100.00
6514;BME280;3290;47.716;9.070;2024-02-21T08:05:01;97617.34;;;8.16;99.81
6514;BME280;3290;47.716;9.070;2024-02-21T08:07:26;97610.31;;;8.02;96.50
6514;BME280;3290;47.716;9.070;2024-02-21T08:09:54;97608.47;;;8.87;95.55
6514;BME280;3290;47.716;9.070;2024-02-21T08:12:19;97605.09;;;8.51;93.49
6514;BME280;3290;47.716;9.070;2024-02-21T08:14:45;97611.00;;;8.39;95.30
6514;BME280;3290;47.716;9.070;2024-02-21T08:17:10;97603.63;;;8.63;92.33
6514;BME280;3290;47.716;9.070;2024-02-21T08:19:36;97611.47;;;7.99;96.38
6514;BME280;3290;47.716;9.070;2024-02-21T08:22:01;97597.13;;;8.94;93.58
6514;BME280;3290;47.716;9.070;2024-02-21T08:24:26;97595.91;;;9.18;89.80
6514;BME280;3290;47.716;9.070;2024-02-21T08:26:52;97609.31;;;9.08;89.54
6514;BME280;3290;47.716;9.070;2024-02-21T08:29:17;97610.47;;;9.06;90.04
6514;BME280;3290;47.716;9.070;2024-02-21T08:31:42;97611.22;;;8.79;90.26
6514;BME280;3290;47.716;9.070;2024-02-21T08:34:08;97606.81;;;8.79;89.07
6514;BME280;3290;47.716;9.070;2024-02-21T08:36:34;97609.69;;;9.59;85.77
6514;BME280;3290;47.716;9.070;2024-02-21T08:39:00;97614.78;;;9.40;85.26
6514;BME280;3290;47.716;9.070;2024-02-21T08:41:26;97613.69;;;9.28;87.36
6514;BME280;3290;47.716;9.070;2024-02-21T08:43:52;97604.16;;;9.48;88.17
6514;BME280;3290;47.716;9.070;2024-02-21T08:46:19;97602.94;;;9.78;86.08
6514;BME280;3290;47.716;9.070;2024-02-21T08:48:45;97597.09;;;9.76;85.39
6514;BME280;3290;47.716;9.070;2024-02-21T08:51:11;97599.28;;;9.99;86.60
6514;BME280;3290;47.716;9.070;2024-02-21T08:53:37;97593.31;;;10.12;82.51
6514;BME280;3290;47.716;9.070;2024-02-21T08:56:03;97594.28;;;10.64;81.70
6514;BME280;3290;47.716;9.070;2024-02-21T08:58:29;97592.34;;;11.17;79.01
6514;BME280;3290;47.716;9.070;2024-02-21T09:00:54;97581.97;;;10.58;81.26
6514;BME280;3290;47.716;9.070;2024-02-21T09:03:19;97580.09;;;10.39;82.01
6514;BME280;3290;47.716;9.070;2024-02-21T09:05:46;97580.91;;;10.33;82.32
6514;BME280;3290;47.716;9.070;2024-02-21T09:08:12;97581.59;;;9.74;85.52
6514;BME280;3290;47.716;9.070;2024-02-21T09:10:37;97579.44;;;9.84;85.69
6514;BME280;3290;47.716;9.070;2024-02-21T09:13:02;97586.25;;;10.84;81.33
6514;BME280;3290;47.716;9.070;2024-02-21T09:15:29;97583.59;;;9.99;84.41
6514;BME280;3290;47.716;9.070;2024-02-21T09:17:54;97583.25;;;10.22;86.42
6514;BME280;3290;47.716;9.070;2024-02-21T09:20:19;97570.78;;;10.17;85.83
6514;BME280;3290;47.716;9.070;2024-02-21T09:22:45;97573.19;;;9.52;88.25
6514;BME280;3290;47.716;9.070;2024-02-21T09:25:10;97570.88;;;9.36;89.11
6514;BME280;3290;47.716;9.070;2024-02-21T09:27:38;97561.31;;;9.83;88.25
6514;BME280;3290;47.716;9.070;2024-02-21T09:30:05;97556.75;;;10.44;86.35
6514;BME280;3290;47.716;9.070;2024-02-21T09:32:31;97558.25;;;10.13;86.13
6514;BME280;3290;47.716;9.070;2024-02-21T09:34:57;97561.25;;;10.03;83.73
6514;BME280;3290;47.716;9.070;2024-02-21T09:37:23;97563.47;;;10.66;80.77
6514;BME280;3290;47.716;9.070;2024-02-21T09:39:48;97553.53;;;11.77;78.04
6514;BME280;3290;47.716;9.070;2024-02-21T09:42:20;97548.56;;;11.24;79.65
6514;BME280;3290;47.716;9.070;2024-02-21T09:44:46;97548.38;;;11.06;84.76
6514;BME280;3290;47.716;9.070;2024-02-21T09:47:50;97544.75;;;12.08;77.65
6514;BME280;3290;47.716;9.070;2024-02-21T09:50:17;97545.53;;;11.01;80.58
6514;BME280;3290;47.716;9.070;2024-02-21T09:52:43;97542.44;;;12.25;75.36
6514;BME280;3290;47.716;9.070;2024-02-21T09:55:10;97541.31;;;11.13;80.10
6514;BME280;3290;47.716;9.070;2024-02-21T09:57:38;97543.28;;;11.43;76.82
6514;BME280;3290;47.716;9.070;2024-02-21T10:00:04;97530.09;;;11.88;75.77
6514;BME280;3290;47.716;9.070;2024-02-21T10:02:33;97539.88;;;11.43;76.84
6514;BME280;3290;47.716;9.070;2024-02-21T10:04:59;97537.59;;;10.37;82.29
6514;BME280;3290;47.716;9.070;2024-02-21T10:07:24;97534.13;;;11.84;77.41
6514;BME280;3290;47.716;9.070;2024-02-21T10:10:03;97530.75;;;13.37;67.66
6514;BME280;3290;47.716;9.070;2024-02-21T10:12:28;97530.06;;;11.95;72.04
6514;BME280;3290;47.716;9.070;2024-02-21T10:15:03;97526.34;;;11.33;73.79
6514;BME280;3290;47.716;9.070;2024-02-21T10:17:29;97514.34;;;11.88;72.88
6514;BME280;3290;47.716;9.070;2024-02-21T10:19:54;97509.59;;;12.77;67.07
6514;BME280;3290;47.716;9.070;2024-02-21T10:22:20;97510.06;;;13.40;65.32
6514;BME280;3290;47.716;9.070;2024-02-21T10:24:50;97508.13;;;11.70;70.02
6514;BME280;3290;47.716;9.070;2024-02-21T10:27:16;97505.53;;;13.05;65.12
6514;BME280;3290;47.716;9.070;2024-02-21T10:29:41;97502.34;;;13.63;63.37
6514;BME280;3290;47.716;9.070;2024-02-21T10:32:11;97500.00;;;13.37;61.06
6514;BME280;3290;47.716;9.070;2024-02-21T10:34:38;97497.63;;;12.20;63.88
6514;BME280;3290;47.716;9.070;2024-02-21T10:37:06;97502.50;;;12.16;64.72
6514;BME280;3290;47.716;9.070;2024-02-21T10:39:32;97489.25;;;13.39;64.95
6514;BME280;3290;47.716;9.070;2024-02-21T10:42:00;97482.66;;;12.88;64.72
6514;BME280;3290;47.716;9.070;2024-02-21T10:44:29;97480.06;;;12.14;63.36
6514;BME280;3290;47.716;9.070;2024-02-21T10:46:58;97473.72;;;13.13;62.22
6514;BME280;3290;47.716;9.070;2024-02-21T10:49:26;97466.22;;;13.52;59.47
6514;BME280;3290;47.716;9.070;2024-02-21T10:54:58;97458.19;;;14.30;54.79
6514;BME280;3290;47.716;9.070;2024-02-21T10:57:26;97448.69;;;13.64;56.92
6514;BME280;3290;47.716;9.070;2024-02-21T10:59:53;97452.28;;;14.16;56.16
6514;BME280;3290;47.716;9.070;2024-02-21T11:02:20;97444.63;;;12.84;59.91
6514;BME280;3290;47.716;9.070;2024-02-21T11:04:45;97441.34;;;13.66;60.17
6514;BME280;3290;47.716;9.070;2024-02-21T11:07:12;97440.88;;;14.85;54.63
6514;BME280;3290;47.716;9.070;2024-02-21T11:09:38;97438.16;;;15.49;51.95
6514;BME280;3290;47.716;9.070;2024-02-21T11:12:05;97433.78;;;15.43;52.74
6514;BME280;3290;47.716;9.070;2024-02-21T11:14:31;97429.88;;;15.57;51.87
6514;BME280;3290;47.716;9.070;2024-02-21T11:17:17;97426.09;;;14.96;55.22
6514;BME280;3290;47.716;9.070;2024-02-21T11:19:43;97424.31;;;14.15;55.50
6514;BME280;3290;47.716;9.070;2024-02-21T11:22:19;97413.81;;;15.24;52.88
6514;BME280;3290;47.716;9.070;2024-02-21T11:24:45;97413.47;;;14.98;52.25
6514;BME280;3290;47.716;9.070;2024-02-21T11:27:20;97402.94;;;14.75;54.28
6514;BME280;3290;47.716;9.070;2024-02-21T11:32:17;97384.56;;;13.88;56.16
6514;BME280;3290;47.716;9.070;2024-02-21T11:35:18;97379.16;;;15.09;52.92
6514;BME280;3290;47.716;9.070;2024-02-21T11:37:44;97372.28;;;14.97;54.01
6514;BME280;3290;47.716;9.070;2024-02-21T11:40:12;97351.63;;;15.95;52.00
6514;BME280;3290;47.716;9.070;2024-02-21T11:42:37;97355.03;;;15.40;53.84
6514;BME280;3290;47.716;9.070;2024-02-21T11:45:03;97350.09;;;15.82;51.01
6514;BME280;3290;47.716;9.070;2024-02-21T11:47:29;97341.53;;;16.68;49.68
6514;BME280;3290;47.716;9.070;2024-02-21T11:49:54;97336.81;;;17.66;46.83
6514;BME280;3290;47.716;9.070;2024-02-21T11:52:24;97331.25;;;15.79;50.95
6514;BME280;3290;47.716;9.070;2024-02-21T11:54:53;97319.09;;;16.22;49.60
6514;BME280;3290;47.716;9.070;2024-02-21T11:57:20;97323.59;;;15.94;50.98
6514;BME280;3290;47.716;9.070;2024-02-21T11:59:45;97317.38;;;15.72;52.78
6514;BME280;3290;47.716;9.070;2024-02-21T12:02:12;97314.56;;;15.00;54.56
6514;BME280;3290;47.716;9.070;2024-02-21T12:04:37;97303.44;;;15.76;52.31
6514;BME280;3290;47.716;9.070;2024-02-21T12:07:03;97306.25;;;15.42;52.45
6514;BME280;3290;47.716;9.070;2024-02-21T12:09:31;97301.81;;;15.31;52.19
6514;BME280;3290;47.716;9.070;2024-02-21T12:12:00;97291.75;;;14.03;56.52
6514;BME280;3290;47.716;9.070;2024-02-21T12:14:27;97291.97;;;14.13;56.37
6514;BME280;3290;47.716;9.070;2024-02-21T12:16:54;97283.00;;;15.17;53.06
6514;BME280;3290;47.716;9.070;2024-02-21T12:19:19;97271.75;;;15.21;52.27
6514;BME280;3290;47.716;9.070;2024-02-21T12:21:45;97269.50;;;15.02;54.39
6514;BME280;3290;47.716;9.070;2024-02-21T12:26:52;97253.97;;;14.55;55.56
6514;BME280;3290;47.716;9.070;2024-02-21T12:29:21;97252.91;;;15.29;54.51
6514;BME280;3290;47.716;9.070;2024-02-21T12:31:47;97249.47;;;15.72;50.77
6514;BME280;3290;47.716;9.070;2024-02-21T12:34:14;97247.25;;;15.64;51.53
6514;BME280;3290;47.716;9.070;2024-02-21T12:36:46;97252.75;;;15.35;52.32
6514;BME280;3290;47.716;9.070;2024-02-21T12:39:14;97243.59;;;14.87;52.01
6514;BME280;3290;47.716;9.070;2024-02-21T12:41:40;97239.16;;;14.65;53.64
6514;BME280;3290;47.716;9.070;2024-02-21T12:44:09;97233.56;;;14.39;55.04
6514;BME280;3290;47.716;9.070;2024-02-21T12:46:36;97223.88;;;14.79;53.38
6514;BME280;3290;47.716;9.070;2024-02-21T12:49:02;97217.84;;;15.06;53.39
6514;BME280;3290;47.716;9.070;2024-02-21T12:51:28;97215.69;;;15.58;52.19
6514;BME280;3290;47.716;9.070;2024-02-21T12:53:55;97214.94;;;15.19;52.14
6514;BME280;3290;47.716;9.070;2024-02-21T12:56:20;97206.38;;;15.00;52.67
6514;BME280;3290;47.716;9.070;2024-02-21T12:58:46;97206.56;;;14.82;53.01
6514;BME280;3290;47.716;9.070;2024-02-21T13:01:11;97199.81;;;14.75;52.84
6514;BME280;3290;47.716;9.070;2024-02-21T13:03:37;97187.75;;;15.18;52.75
6514;BME280;3290;47.716;9.070;2024-02-21T13:06:03;97184.16;;;14.46;52.73
6514;BME280;3290;47.716;9.070;2024-02-21T13:08:28;97179.03;;;14.28;54.17
6514;BME280;3290;47.716;9.070;2024-02-21T13:10:54;97181.25;;;14.59;54.04
6514;BME280;3290;47.716;9.070;2024-02-21T13:13:19;97164.56;;;14.81;52.82
6514;BME280;3290;47.716;9.070;2024-02-21T13:15:45;97160.38;;;14.69;54.24
6514;BME280;3290;47.716;9.070;2024-02-21T13:18:10;97149.53;;;15.09;52.95
6514;BME280;3290;47.716;9.070;2024-02-21T13:20:36;97145.38;;;15.24;52.67
6514;BME280;3290;47.716;9.070;2024-02-21T13:23:02;97139.44;;;14.51;54.08
6514;BME280;3290;47.716;9.070;2024-02-21T13:25:27;97131.72;;;14.88;51.74
6514;BME280;3290;47.716;9.070;2024-02-21T13:27:53;97119.97;;;14.80;52.58